Time;durP1;ratioP1;P1;durP2;ratioP2;P2;SDS_P1;SDS_P2;PMS_P1;PMS_P2;Temp;Humidity;BMP_temperature;BMP_pressure;BME280_temperature;BME280_humidity;BME280_pressure;Samples;Min_cycle;Max_cycle;Signal;HPM_P1;HPM_P2
2023/12/19 00:02:01;;;;;;;;;;;29.50;99.90;;;;;;4964500;28;19914;-71
2023/12/19 00:04:28;;;;;;;;;;;29.70;99.90;;;;;;4971236;28;19918;-70
2023/12/19 00:06:55;;;;;;;;;;;29.80;99.90;;;;;;4970449;28;19910;-70
2023/12/19 00:09:22;;;;;;;;;;;29.80;99.90;;;;;;4970154;28;20271;-70
2023/12/19 00:11:48;;;;;;;;;;;29.80;99.90;;;;;;4969451;28;19919;-70
2023/12/19 00:14:15;;;;;;;;;;;29.80;99.90;;;;;;4965186;28;19914;-70
2023/12/19 00:16:41;;;;;;;;;;;29.80;99.90;;;;;;4966368;28;20375;-73
2023/12/19 00:19:09;;;;;;;;;;;29.70;99.90;;;;;;4951113;28;19910;-74
2023/12/19 00:21:36;;;;;;;;;;;29.60;99.90;;;;;;4957583;28;19914;-71
2023/12/19 00:24:02;;;;;;;;;;;29.70;99.90;;;;;;5055482;28;19920;-73
2023/12/19 00:26:29;;;;;;;;;;;29.70;99.90;;;;;;5071630;28;19994;-73
2023/12/19 00:28:56;;;;;;;;;;;29.70;99.90;;;;;;5071474;28;19908;-73
2023/12/19 00:31:22;;;;;;;;;;;29.70;99.90;;;;;;4989400;28;19926;-69
2023/12/19 00:33:49;;;;;;;;;;;29.90;99.90;;;;;;4969495;28;19914;-69
2023/12/19 00:36:22;;;;;;;;;;;30.00;99.90;;;;;;4963674;28;19922;-71
2023/12/19 00:38:49;;;;;;;;;;;30.00;99.90;;;;;;4971009;28;19967;-70
2023/12/19 00:41:16;;;;;;;;;;;30.20;99.90;;;;;;4972588;28;19911;-71
2023/12/19 00:43:43;;;;;;;;;;;30.20;99.90;;;;;;4973903;28;19979;-72
2023/12/19 00:46:09;;;;;;;;;;;30.30;99.90;;;;;;4974209;28;20010;-73
2023/12/19 00:48:36;;;;;;;;;;;30.50;99.90;;;;;;4975194;28;20005;-72
2023/12/19 00:51:03;;;;;;;;;;;30.60;99.90;;;;;;4975239;28;19918;-71
2023/12/19 00:53:30;;;;;;;;;;;30.70;99.90;;;;;;4975401;28;19976;-71
2023/12/19 00:55:57;;;;;;;;;;;30.90;99.90;;;;;;4974202;28;20371;-75
2023/12/19 00:58:24;;;;;;;;;;;30.90;99.90;;;;;;4972474;28;19918;-71
2023/12/19 01:00:50;;;;;;;;;;;30.90;99.90;;;;;;4972281;28;19918;-72
2023/12/19 01:03:17;;;;;;;;;;;30.90;99.90;;;;;;4972835;28;20005;-71
2023/12/19 01:05:44;;;;;;;;;;;30.90;99.90;;;;;;4972362;28;20032;-71
2023/12/19 01:08:10;;;;;;;;;;;31.00;99.90;;;;;;4994586;28;19912;-77
2023/12/19 01:10:37;;;;;;;;;;;31.00;99.90;;;;;;4991617;28;19922;-71
2023/12/19 01:13:04;;;;;;;;;;;31.10;99.90;;;;;;4972460;28;19914;-75
2023/12/19 01:15:31;;;;;;;;;;;31.10;99.90;;;;;;4972564;28;20263;-71
2023/12/19 01:17:58;;;;;;;;;;;31.00;99.90;;;;;;4970474;28;19922;-70
2023/12/19 01:20:25;;;;;;;;;;;31.10;99.90;;;;;;4973180;28;19915;-71
2023/12/19 01:22:51;;;;;;;;;;;31.10;99.90;;;;;;4972637;28;19923;-71
2023/12/19 01:25:18;;;;;;;;;;;31.20;99.90;;;;;;4971381;28;19960;-77
2023/12/19 01:27:44;;;;;;;;;;;31.20;99.90;;;;;;4972372;28;19944;-72
2023/12/19 01:30:11;;;;;;;;;;;31.20;99.90;;;;;;4962526;28;20374;-71
2023/12/19 01:32:39;;;;;;;;;;;31.10;99.90;;;;;;4971854;28;19968;-74
2023/12/19 01:35:06;;;;;;;;;;;31.10;99.90;;;;;;4965597;28;20005;-73
2023/12/19 01:37:35;;;;;;;;;;;31.10;99.90;;;;;;4967611;28;19914;-73
2023/12/19 01:40:01;;;;;;;;;;;31.10;99.90;;;;;;4971716;28;19910;-72
2023/12/19 01:42:28;;;;;;;;;;;31.00;99.90;;;;;;4967628;28;19921;-73
2023/12/19 01:45:10;;;;;;;;;;;30.90;99.90;;;;;;4971447;28;19914;-75
2023/12/19 01:47:43;;;;;;;;;;;30.90;99.90;;;;;;4972542;28;19936;-73
2023/12/19 01:50:11;;;;;;;;;;;31.00;99.90;;;;;;4971570;28;19941;-76
2023/12/19 01:52:39;;;;;;;;;;;31.10;99.90;;;;;;4965087;28;19914;-72
2023/12/19 01:55:06;;;;;;;;;;;31.20;99.90;;;;;;4953059;28;20295;-76
2023/12/19 01:57:33;;;;;;;;;;;31.30;99.90;;;;;;4964859;28;19921;-71
2023/12/19 02:00:00;;;;;;;;;;;31.40;99.90;;;;;;4972175;28;19963;-70
2023/12/19 02:02:27;;;;;;;;;;;31.60;99.90;;;;;;4966155;28;19915;-71
2023/12/19 02:04:56;;;;;;;;;;;31.80;99.90;;;;;;4966877;28;19918;-72
2023/12/19 02:07:23;;;;;;;;;;;31.90;99.90;;;;;;4971828;28;19956;-74
2023/12/19 02:09:50;;;;;;;;;;;32.10;99.90;;;;;;4970967;28;19910;-71
2023/12/19 02:12:16;;;;;;;;;;;32.30;99.90;;;;;;4967039;28;19929;-72
2023/12/19 02:14:44;;;;;;;;;;;32.30;99.90;;;;;;4969371;28;19918;-76
2023/12/19 02:17:15;;;;;;;;;;;32.30;99.90;;;;;;4971768;28;19960;-71
2023/12/19 02:19:45;;;;;;;;;;;32.40;98.70;;;;;;4972166;28;19911;-71
2023/12/19 02:22:12;;;;;;;;;;;32.60;98.00;;;;;;4970731;28;19937;-71
2023/12/19 02:24:38;;;;;;;;;;;32.70;96.90;;;;;;4971529;28;20291;-74
2023/12/19 02:27:06;;;;;;;;;;;32.90;96.80;;;;;;4968525;28;20582;-71
2023/12/19 02:29:33;;;;;;;;;;;33.00;95.70;;;;;;4964086;28;20004;-81
2023/12/19 02:32:00;;;;;;;;;;;33.20;95.90;;;;;;5000094;28;19936;-71
2023/12/19 02:34:27;;;;;;;;;;;33.30;95.00;;;;;;4976181;28;19921;-70
2023/12/19 02:36:53;;;;;;;;;;;33.50;95.00;;;;;;4974613;28;20001;-73
2023/12/19 02:39:20;;;;;;;;;;;33.60;94.60;;;;;;4975250;28;19914;-72
2023/12/19 02:41:47;;;;;;;;;;;33.80;93.90;;;;;;5066983;28;19908;-72
2023/12/19 02:44:13;;;;;;;;;;;34.00;93.50;;;;;;4978523;28;19967;-72
2023/12/19 02:46:40;;;;;;;;;;;34.30;93.80;;;;;;4960029;28;20390;-77
2023/12/19 02:49:25;;;;;;;;;;;34.60;93.30;;;;;;4965562;28;20026;-77
2023/12/19 02:51:52;;;;;;;;;;;34.70;92.60;;;;;;4970909;28;20000;-77
2023/12/19 02:54:19;;;;;;;;;;;34.90;92.30;;;;;;4970260;28;19914;-77
2023/12/19 02:56:46;;;;;;;;;;;35.10;91.80;;;;;;4969891;28;19921;-71
2023/12/19 02:59:12;;;;;;;;;;;35.20;90.70;;;;;;4964474;28;20013;-73
2023/12/19 03:01:39;;;;;;;;;;;35.10;90.30;;;;;;4958689;28;20371;-76
2023/12/19 03:04:05;;;;;;;;;;;35.20;90.30;;;;;;4973039;28;19933;-69
2023/12/19 03:06:32;;;;;;;;;;;35.20;90.40;;;;;;5033469;28;20016;-72
2023/12/19 03:08:59;;;;;;;;;;;35.30;90.30;;;;;;4965987;28;19916;-78
2023/12/19 03:11:26;;;;;;;;;;;35.30;88.80;;;;;;4970030;28;19923;-71
2023/12/19 03:13:53;;;;;;;;;;;35.20;88.20;;;;;;4973818;28;19918;-73
2023/12/19 03:16:19;;;;;;;;;;;35.20;87.50;;;;;;5024365;28;19925;-71
2023/12/19 03:18:46;;;;;;;;;;;35.30;88.40;;;;;;4969968;28;19921;-72
2023/12/19 03:21:13;;;;;;;;;;;35.30;87.40;;;;;;4970233;28;19914;-71
2023/12/19 03:23:39;;;;;;;;;;;35.20;85.90;;;;;;4969377;28;20367;-70
2023/12/19 03:26:06;;;;;;;;;;;35.20;85.80;;;;;;4960416;28;19915;-70
2023/12/19 03:28:35;;;;;;;;;;;35.20;86.60;;;;;;4974836;28;19922;-72
2023/12/19 03:31:01;;;;;;;;;;;35.30;85.50;;;;;;4963334;28;20016;-70
2023/12/19 03:33:28;;;;;;;;;;;35.50;86.10;;;;;;4964361;28;20318;-70
2023/12/19 03:35:55;;;;;;;;;;;35.50;84.90;;;;;;4961506;28;20381;-68
2023/12/19 03:38:22;;;;;;;;;;;35.40;85.00;;;;;;4963611;28;20430;-70
2023/12/19 03:40:49;;;;;;;;;;;35.30;85.90;;;;;;4972625;28;19999;-71
2023/12/19 03:43:15;;;;;;;;;;;35.30;86.60;;;;;;4972949;28;19922;-70
2023/12/19 03:45:42;;;;;;;;;;;35.10;86.90;;;;;;4972950;28;20244;-71
2023/12/19 03:48:09;;;;;;;;;;;35.00;87.10;;;;;;4965754;28;19937;-70
2023/12/19 03:50:35;;;;;;;;;;;34.50;88.40;;;;;;4964239;28;19922;-71
2023/12/19 03:53:02;;;;;;;;;;;34.30;89.90;;;;;;4980482;28;19910;-70
2023/12/19 03:55:28;;;;;;;;;;;34.30;90.10;;;;;;4960037;28;19915;-71
2023/12/19 03:57:55;;;;;;;;;;;34.40;90.20;;;;;;4975623;28;19915;-69
2023/12/19 04:00:22;;;;;;;;;;;34.40;90.00;;;;;;4962770;28;19910;-69
2023/12/19 04:02:48;;;;;;;;;;;34.40;90.10;;;;;;4957840;28;19921;-70
2023/12/19 04:05:15;;;;;;;;;;;34.40;90.40;;;;;;4961574;28;19910;-70
2023/12/19 04:07:41;;;;;;;;;;;34.50;90.20;;;;;;4960798;28;20295;-69
2023/12/19 04:10:09;;;;;;;;;;;34.60;90.20;;;;;;4977234;28;19926;-72
2023/12/19 04:12:36;;;;;;;;;;;34.80;90.20;;;;;;4961070;28;20374;-70
2023/12/19 04:15:03;;;;;;;;;;;35.10;90.10;;;;;;4959973;28;19910;-71
2023/12/19 04:17:30;;;;;;;;;;;35.50;89.70;;;;;;4971503;28;20068;-72
2023/12/19 04:19:56;;;;;;;;;;;35.90;88.80;;;;;;4963573;28;19914;-71
2023/12/19 04:22:23;;;;;;;;;;;36.20;87.80;;;;;;4969041;28;19982;-73
2023/12/19 04:24:50;;;;;;;;;;;36.40;87.60;;;;;;4960703;28;19915;-70
2023/12/19 04:27:16;;;;;;;;;;;36.90;87.30;;;;;;4961926;28;19914;-72
2023/12/19 04:29:45;;;;;;;;;;;37.20;85.50;;;;;;4973884;28;20015;-71
2023/12/19 04:32:15;;;;;;;;;;;37.30;86.60;;;;;;4965222;28;19944;-70
2023/12/19 04:34:41;;;;;;;;;;;37.20;85.00;;;;;;4963823;28;19967;-70
2023/12/19 04:37:08;;;;;;;;;;;36.90;85.10;;;;;;4962865;28;19918;-71
2023/12/19 04:39:35;;;;;;;;;;;36.60;85.20;;;;;;4959557;28;19915;-71
2023/12/19 04:42:01;;;;;;;;;;;36.30;85.80;;;;;;4967585;28;19964;-73
2023/12/19 04:44:28;;;;;;;;;;;35.50;86.80;;;;;;4969407;28;19917;-73
2023/12/19 04:46:54;;;;;;;;;;;35.20;88.30;;;;;;4964266;28;19914;-73
2023/12/19 04:49:21;;;;;;;;;;;35.20;88.90;;;;;;4966530;28;20016;-71
2023/12/19 04:51:48;;;;;;;;;;;35.10;89.30;;;;;;5011879;28;19926;-71
2023/12/19 04:54:14;;;;;;;;;;;35.00;89.20;;;;;;4967680;28;19949;-70
2023/12/19 04:56:42;;;;;;;;;;;35.00;89.80;;;;;;4968771;28;19961;-72
2023/12/19 04:59:08;;;;;;;;;;;34.90;89.10;;;;;;4969359;28;19910;-73
2023/12/19 05:01:39;;;;;;;;;;;34.60;89.00;;;;;;4965454;28;20045;-72
2023/12/19 05:04:07;;;;;;;;;;;34.80;90.00;;;;;;4966449;28;19997;-70
2023/12/19 05:06:34;;;;;;;;;;;35.00;90.10;;;;;;4968837;28;20294;-70
2023/12/19 05:09:00;;;;;;;;;;;35.30;89.50;;;;;;4968930;28;20275;-71
2023/12/19 05:11:27;;;;;;;;;;;36.00;89.70;;;;;;4966821;28;19929;-71
2023/12/19 05:13:54;;;;;;;;;;;36.40;87.00;;;;;;4967136;28;19910;-71
2023/12/19 05:16:20;;;;;;;;;;;36.50;87.10;;;;;;4968197;28;19915;-73
2023/12/19 05:18:47;;;;;;;;;;;36.80;86.50;;;;;;4968343;28;19948;-73
2023/12/19 05:21:14;;;;;;;;;;;37.20;86.00;;;;;;4968612;28;20363;-71
2023/12/19 05:23:41;;;;;;;;;;;37.10;85.30;;;;;;4963382;28;19926;-72
2023/12/19 05:26:08;;;;;;;;;;;36.90;86.60;;;;;;4972218;28;20012;-74
2023/12/19 05:28:35;;;;;;;;;;;37.00;85.90;;;;;;4972256;28;19910;-71
2023/12/19 05:31:02;;;;;;;;;;;37.20;85.50;;;;;;4971829;28;20386;-69
2023/12/19 05:33:30;;;;;;;;;;;37.10;85.30;;;;;;4966260;28;20434;-70
2023/12/19 05:35:56;;;;;;;;;;;37.00;84.70;;;;;;4971012;28;19921;-70
2023/12/19 05:38:23;;;;;;;;;;;36.80;85.30;;;;;;4971054;28;19915;-72
2023/12/19 05:40:56;;;;;;;;;;;36.80;85.00;;;;;;5011896;28;19924;-73
2023/12/19 05:43:23;;;;;;;;;;;36.70;85.00;;;;;;4963399;28;19922;-71
2023/12/19 05:45:49;;;;;;;;;;;36.70;84.10;;;;;;4971582;28;19914;-73
2023/12/19 05:48:16;;;;;;;;;;;36.60;83.70;;;;;;4971756;28;19910;-70
2023/12/19 05:50:42;;;;;;;;;;;36.20;83.70;;;;;;4971535;28;19918;-71
2023/12/19 05:53:09;;;;;;;;;;;36.00;84.70;;;;;;4962261;28;19983;-71
2023/12/19 05:55:36;;;;;;;;;;;35.80;84.40;;;;;;4971254;28;19921;-72
2023/12/19 05:58:02;;;;;;;;;;;35.60;84.90;;;;;;4971481;28;19914;-73
2023/12/19 06:00:29;;;;;;;;;;;35.40;85.00;;;;;;4971272;28;19929;-74
2023/12/19 06:02:56;;;;;;;;;;;35.20;85.10;;;;;;4963813;28;20333;-73
2023/12/19 06:05:24;;;;;;;;;;;35.10;84.60;;;;;;4972539;28;19910;-75
2023/12/19 06:07:50;;;;;;;;;;;35.00;85.70;;;;;;5000869;28;19916;-74
2023/12/19 06:10:17;;;;;;;;;;;34.80;86.80;;;;;;5042181;28;19918;-70
2023/12/19 06:12:44;;;;;;;;;;;34.30;88.30;;;;;;4963723;28;19961;-75
2023/12/19 06:15:14;;;;;;;;;;;33.80;89.50;;;;;;4970843;28;19915;-71
2023/12/19 06:17:45;;;;;;;;;;;33.50;88.00;;;;;;4965128;28;19939;-71
2023/12/19 06:20:12;;;;;;;;;;;33.20;88.50;;;;;;4966511;28;19915;-72
2023/12/19 06:22:41;;;;;;;;;;;32.90;89.10;;;;;;4964280;28;20005;-70
2023/12/19 06:25:08;;;;;;;;;;;32.80;89.50;;;;;;4971723;28;19910;-70
2023/12/19 06:27:34;;;;;;;;;;;32.90;89.10;;;;;;4969725;28;19925;-70
2023/12/19 06:30:02;;;;;;;;;;;32.90;88.80;;;;;;4970050;28;20413;-72
2023/12/19 06:32:28;;;;;;;;;;;32.80;89.10;;;;;;4962490;28;20272;-70
2023/12/19 06:34:55;;;;;;;;;;;32.80;89.60;;;;;;4971064;28;19918;-69
2023/12/19 06:37:21;;;;;;;;;;;32.80;90.10;;;;;;4981177;28;20287;-72
2023/12/19 06:39:48;;;;;;;;;;;32.70;90.20;;;;;;5063171;28;19909;-72
2023/12/19 06:42:15;;;;;;;;;;;32.70;90.50;;;;;;4969909;28;20325;-68
2023/12/19 06:44:41;;;;;;;;;;;32.60;90.60;;;;;;4965268;28;19991;-73
2023/12/19 06:47:08;;;;;;;;;;;32.60;90.60;;;;;;4965192;28;19921;-70
2023/12/19 06:49:35;;;;;;;;;;;32.60;90.80;;;;;;4961333;28;19914;-71
2023/12/19 06:52:01;;;;;;;;;;;32.50;90.70;;;;;;4962108;28;19922;-71
2023/12/19 06:54:28;;;;;;;;;;;32.40;90.90;;;;;;4969115;28;19959;-72
2023/12/19 06:56:55;;;;;;;;;;;32.20;90.80;;;;;;4964899;28;19976;-73
2023/12/19 06:59:21;;;;;;;;;;;32.30;90.60;;;;;;4969388;28;19944;-70
2023/12/19 07:01:48;;;;;;;;;;;32.20;90.00;;;;;;4959830;28;20352;-70
2023/12/19 07:04:14;;;;;;;;;;;32.10;90.20;;;;;;4975258;28;20025;-71
2023/12/19 07:06:41;;;;;;;;;;;32.10;90.10;;;;;;4960137;28;19910;-71
2023/12/19 07:09:08;;;;;;;;;;;32.10;89.90;;;;;;4960949;28;19910;-72
2023/12/19 07:11:34;;;;;;;;;;;32.10;90.10;;;;;;4960182;28;19930;-70
2023/12/19 07:14:01;;;;;;;;;;;32.00;90.00;;;;;;4963352;28;19922;-72
2023/12/19 07:16:28;;;;;;;;;;;31.90;90.00;;;;;;4963240;28;19914;-70
2023/12/19 07:18:54;;;;;;;;;;;31.80;90.10;;;;;;4967969;28;20351;-71
2023/12/19 07:21:21;;;;;;;;;;;31.80;90.30;;;;;;4964843;28;19926;-70
2023/12/19 07:23:48;;;;;;;;;;;31.70;90.40;;;;;;4964186;28;19941;-73
2023/12/19 07:26:26;;;;;;;;;;;31.70;90.50;;;;;;4970905;28;19921;-70
2023/12/19 07:28:53;;;;;;;;;;;31.60;90.30;;;;;;4970867;28;20406;-71
2023/12/19 07:31:24;;;;;;;;;;;31.50;90.30;;;;;;4965488;28;19922;-74
2023/12/19 07:33:54;;;;;;;;;;;31.40;90.60;;;;;;4964707;28;19937;-71
2023/12/19 07:36:20;;;;;;;;;;;31.40;90.60;;;;;;4969275;28;19921;-71
2023/12/19 07:38:48;;;;;;;;;;;31.30;90.80;;;;;;4968591;28;19921;-70
2023/12/19 07:41:14;;;;;;;;;;;31.20;90.90;;;;;;4997500;28;20018;-71
2023/12/19 07:43:41;;;;;;;;;;;31.10;91.00;;;;;;4970855;28;19910;-70
2023/12/19 07:46:08;;;;;;;;;;;31.10;91.10;;;;;;4970612;28;19936;-70
2023/12/19 07:48:34;;;;;;;;;;;31.10;91.30;;;;;;4970249;28;19910;-71
2023/12/19 07:51:02;;;;;;;;;;;31.00;91.40;;;;;;4968180;28;19926;-70
2023/12/19 07:53:29;;;;;;;;;;;31.00;91.30;;;;;;4962053;28;19984;-71
2023/12/19 07:55:58;;;;;;;;;;;30.90;91.30;;;;;;4970829;28;19914;-70
2023/12/19 07:58:25;;;;;;;;;;;31.00;91.30;;;;;;4970685;28;19918;-71
2023/12/19 08:00:52;;;;;;;;;;;30.90;91.00;;;;;;4969403;28;19937;-70
2023/12/19 08:03:18;;;;;;;;;;;30.90;91.10;;;;;;4968344;28;19915;-70
2023/12/19 08:05:53;;;;;;;;;;;30.90;91.20;;;;;;4966798;28;20347;-71
2023/12/19 08:08:20;;;;;;;;;;;30.80;91.10;;;;;;4962323;28;19993;-69
2023/12/19 08:10:47;;;;;;;;;;;30.80;90.80;;;;;;4963149;28;19923;-70
2023/12/19 08:13:14;;;;;;;;;;;30.80;90.90;;;;;;4967365;28;19914;-71
2023/12/19 08:15:41;;;;;;;;;;;30.70;90.70;;;;;;4978983;28;19918;-70
2023/12/19 08:18:10;;;;;;;;;;;30.70;90.40;;;;;;4979761;28;20701;-71
2023/12/19 08:20:37;;;;;;;;;;;30.70;89.40;;;;;;4970268;28;20267;-72
2023/12/19 08:23:04;;;;;;;;;;;30.70;88.60;;;;;;4966459;28;20417;-71
2023/12/19 08:25:30;;;;;;;;;;;30.70;86.20;;;;;;4970361;28;19918;-71
2023/12/19 08:27:57;;;;;;;;;;;30.70;84.60;;;;;;4963971;28;19914;-71
2023/12/19 08:30:27;;;;;;;;;;;30.80;84.80;;;;;;4958278;28;20435;-71
2023/12/19 08:32:54;;;;;;;;;;;30.80;84.30;;;;;;4963132;28;19922;-71
2023/12/19 08:35:21;;;;;;;;;;;30.80;84.70;;;;;;4970160;28;20363;-71
2023/12/19 08:37:48;;;;;;;;;;;30.80;84.40;;;;;;4970136;28;19914;-72
2023/12/19 08:40:15;;;;;;;;;;;30.80;84.60;;;;;;4969967;28;19918;-72
2023/12/19 08:42:41;;;;;;;;;;;30.80;84.80;;;;;;4961636;28;19979;-71
2023/12/19 08:45:26;;;;;;;;;;;30.80;85.10;;;;;;4969916;28;19928;-71
2023/12/19 08:47:53;;;;;;;;;;;30.70;85.00;;;;;;4967239;28;20562;-73
2023/12/19 08:50:20;;;;;;;;;;;30.60;84.80;;;;;;4981962;28;20371;-71
2023/12/19 08:52:47;;;;;;;;;;;30.60;84.80;;;;;;4961262;28;20086;-74
2023/12/19 08:55:14;;;;;;;;;;;30.60;84.60;;;;;;4953691;28;19921;-71
2023/12/19 08:57:46;;;;;;;;;;;30.60;84.50;;;;;;4970014;28;20021;-74
2023/12/19 09:00:16;;;;;;;;;;;30.60;84.70;;;;;;4973321;28;19928;-70
2023/12/19 09:02:43;;;;;;;;;;;30.60;84.50;;;;;;4964360;28;20390;-74
2023/12/19 09:05:10;;;;;;;;;;;30.60;85.10;;;;;;4973146;28;19910;-72
2023/12/19 09:07:37;;;;;;;;;;;30.50;90.00;;;;;;4968645;28;19920;-70
2023/12/19 09:10:05;;;;;;;;;;;30.30;91.20;;;;;;4962299;28;19915;-70
2023/12/19 09:12:34;;;;;;;;;;;30.00;91.80;;;;;;4965368;28;19922;-70
2023/12/19 09:15:02;;;;;;;;;;;29.60;92.40;;;;;;4962104;28;19997;-75
2023/12/19 09:17:29;;;;;;;;;;;29.10;92.90;;;;;;4963773;28;20432;-69
2023/12/19 09:19:56;;;;;;;;;;;28.70;94.20;;;;;;4966269;28;19914;-70
2023/12/19 09:22:23;;;;;;;;;;;28.10;95.70;;;;;;4965029;28;20013;-70
2023/12/19 09:24:49;;;;;;;;;;;27.70;97.00;;;;;;4964803;28;19910;-72
2023/12/19 09:27:16;;;;;;;;;;;27.20;98.00;;;;;;4963063;28;19946;-74
2023/12/19 09:29:43;;;;;;;;;;;26.90;99.20;;;;;;4976666;28;19916;-72
2023/12/19 09:32:11;;;;;;;;;;;26.60;99.90;;;;;;4959424;28;19923;-71
2023/12/19 09:34:40;;;;;;;;;;;26.30;99.90;;;;;;4964779;28;20371;-70
2023/12/19 09:37:07;;;;;;;;;;;26.20;99.90;;;;;;4963784;28;19921;-71
2023/12/19 09:39:33;;;;;;;;;;;26.00;99.90;;;;;;4963078;28;19992;-71
2023/12/19 09:42:00;;;;;;;;;;;25.60;99.90;;;;;;4966562;28;19918;-70
2023/12/19 09:44:27;;;;;;;;;;;25.20;99.90;;;;;;4965612;28;20005;-70
2023/12/19 09:46:54;;;;;;;;;;;24.80;99.90;;;;;;4963138;28;19922;-71
2023/12/19 09:49:24;;;;;;;;;;;24.40;99.90;;;;;;4964392;28;20331;-70
2023/12/19 09:51:52;;;;;;;;;;;24.30;99.90;;;;;;4964927;28;19922;-71
2023/12/19 09:54:22;;;;;;;;;;;24.00;99.90;;;;;;4966467;28;19911;-71
2023/12/19 09:56:52;;;;;;;;;;;23.90;99.90;;;;;;4961578;28;19910;-71
2023/12/19 09:59:19;;;;;;;;;;;23.70;99.90;;;;;;4965722;28;19921;-69
2023/12/19 10:01:46;;;;;;;;;;;23.50;99.90;;;;;;4971064;28;19922;-69
2023/12/19 10:04:17;;;;;;;;;;;23.40;99.90;;;;;;4964286;28;19914;-75
2023/12/19 10:07:04;;;;;;;;;;;23.20;99.90;;;;;;4962236;28;20366;-73
2023/12/19 10:09:31;;;;;;;;;;;23.20;99.90;;;;;;4963259;28;20002;-73
2023/12/19 10:12:04;;;;;;;;;;;23.20;99.90;;;;;;4969531;28;20016;-74
2023/12/19 10:14:33;;;;;;;;;;;23.10;99.90;;;;;;4965700;28;19914;-71
2023/12/19 10:17:00;;;;;;;;;;;23.00;99.90;;;;;;4962616;28;19911;-70
2023/12/19 10:19:28;;;;;;;;;;;23.00;99.90;;;;;;4974969;28;19921;-71
2023/12/19 10:22:10;;;;;;;;;;;23.00;99.90;;;;;;4962900;28;19923;-73
2023/12/19 10:24:37;;;;;;;;;;;23.00;99.90;;;;;;4962997;28;19915;-71
2023/12/19 10:27:05;;;;;;;;;;;23.00;99.90;;;;;;4962533;28;19917;-74
2023/12/19 10:29:42;;;;;;;;;;;23.00;99.90;;;;;;4964151;28;19922;-73
2023/12/19 10:32:13;;;;;;;;;;;22.90;99.90;;;;;;4962137;28;19918;-72
2023/12/19 10:34:41;;;;;;;;;;;23.00;99.90;;;;;;4961737;28;19915;-72
2023/12/19 10:37:11;;;;;;;;;;;23.00;99.90;;;;;;4961717;28;19911;-71
2023/12/19 10:39:42;;;;;;;;;;;22.90;99.90;;;;;;4962595;28;19914;-75
2023/12/19 10:42:11;;;;;;;;;;;22.90;99.90;;;;;;4962281;28;19928;-77
2023/12/19 10:44:41;;;;;;;;;;;23.00;99.90;;;;;;4962936;28;19922;-71
2023/12/19 10:47:08;;;;;;;;;;;23.00;99.90;;;;;;4961773;28;19910;-71
2023/12/19 10:49:39;;;;;;;;;;;23.00;99.90;;;;;;4963545;28;20001;-71
2023/12/19 10:52:06;;;;;;;;;;;23.00;99.90;;;;;;4962026;28;19928;-75
2023/12/19 10:54:37;;;;;;;;;;;23.00;99.90;;;;;;4962378;28;19960;-70
2023/12/19 10:57:06;;;;;;;;;;;23.10;99.90;;;;;;4962635;28;19916;-70
2023/12/19 10:59:54;;;;;;;;;;;23.10;99.90;;;;;;4965291;28;19910;-72
2023/12/19 11:02:26;;;;;;;;;;;23.10;99.90;;;;;;4962092;28;20429;-73
2023/12/19 11:05:04;;;;;;;;;;;23.10;99.90;;;;;;4962941;28;19914;-73
2023/12/19 11:07:33;;;;;;;;;;;23.20;99.90;;;;;;4967373;28;19911;-77
2023/12/19 11:10:05;;;;;;;;;;;23.10;99.90;;;;;;4962722;28;19967;-72
2023/12/19 11:12:32;;;;;;;;;;;23.20;99.90;;;;;;4975090;28;19914;-74
2023/12/19 11:14:59;;;;;;;;;;;23.10;99.90;;;;;;4965456;28;19914;-71
2023/12/19 11:17:29;;;;;;;;;;;23.00;99.90;;;;;;4960726;28;19910;-71
2023/12/19 11:20:06;;;;;;;;;;;23.10;99.90;;;;;;4962286;28;19961;-72
2023/12/19 11:22:52;;;;;;;;;;;23.00;99.90;;;;;;4974739;28;20342;-72
2023/12/19 11:25:37;;;;;;;;;;;23.00;99.90;;;;;;4964701;28;19961;-71
2023/12/19 11:28:05;;;;;;;;;;;22.90;99.90;;;;;;4960766;28;19914;-70
2023/12/19 11:30:40;;;;;;;;;;;22.90;99.90;;;;;;4963277;28;20299;-69
2023/12/19 11:33:07;;;;;;;;;;;23.00;99.90;;;;;;4960649;28;19921;-70
2023/12/19 11:35:34;;;;;;;;;;;22.90;99.90;;;;;;4964076;28;20505;-70
2023/12/19 11:38:30;;;;;;;;;;;22.90;99.90;;;;;;4960437;28;19915;-71
2023/12/19 11:40:58;;;;;;;;;;;22.90;99.90;;;;;;4970464;28;19976;-71
2023/12/19 11:43:28;;;;;;;;;;;22.80;99.90;;;;;;4966766;28;20026;-70
2023/12/19 11:45:58;;;;;;;;;;;22.80;99.90;;;;;;4964722;28;20315;-71
2023/12/19 11:48:37;;;;;;;;;;;22.80;99.90;;;;;;4961260;28;19915;-72
2023/12/19 11:51:07;;;;;;;;;;;22.80;99.90;;;;;;4960743;28;19918;-73
2023/12/19 11:53:34;;;;;;;;;;;22.70;99.90;;;;;;4961495;28;19942;-71
2023/12/19 11:56:05;;;;;;;;;;;22.70;99.90;;;;;;4964264;28;19914;-70
2023/12/19 11:58:32;;;;;;;;;;;22.60;99.90;;;;;;4960541;28;19915;-72
2023/12/19 12:00:59;;;;;;;;;;;22.70;99.90;;;;;;4962342;28;19915;-70
2023/12/19 12:03:26;;;;;;;;;;;22.70;99.90;;;;;;4960436;28;20377;-70
2023/12/19 12:05:54;;;;;;;;;;;22.70;99.90;;;;;;4965575;28;19914;-72
2023/12/19 12:08:21;;;;;;;;;;;22.70;99.90;;;;;;4965583;28;19960;-78
2023/12/19 12:10:58;;;;;;;;;;;22.70;99.90;;;;;;4972906;28;19929;-70
2023/12/19 12:13:25;;;;;;;;;;;22.60;99.90;;;;;;4975290;28;19957;-70
2023/12/19 12:15:58;;;;;;;;;;;22.60;99.90;;;;;;4977306;28;20290;-70
2023/12/19 12:18:26;;;;;;;;;;;22.60;99.90;;;;;;4962996;28;19929;-70
2023/12/19 12:20:54;;;;;;;;;;;22.60;99.90;;;;;;4970159;28;19910;-71
2023/12/19 12:23:21;;;;;;;;;;;22.50;99.90;;;;;;4970436;28;19967;-70
2023/12/19 12:25:55;;;;;;;;;;;22.50;99.90;;;;;;4970313;28;19916;-69
2023/12/19 12:28:25;;;;;;;;;;;22.60;99.90;;;;;;4969685;28;20015;-70
2023/12/19 12:31:01;;;;;;;;;;;22.50;99.90;;;;;;4969770;28;19915;-70
2023/12/19 12:33:28;;;;;;;;;;;22.50;99.90;;;;;;4975728;28;20012;-70
2023/12/19 12:35:55;;;;;;;;;;;22.60;99.90;;;;;;4973657;28;19961;-70
2023/12/19 12:38:23;;;;;;;;;;;22.60;99.90;;;;;;4958641;28;19914;-70
2023/12/19 12:40:59;;;;;;;;;;;22.50;99.90;;;;;;4973247;28;20286;-69
2023/12/19 12:43:39;;;;;;;;;;;22.50;99.90;;;;;;4972834;28;19914;-72
2023/12/19 12:46:09;;;;;;;;;;;22.50;99.90;;;;;;4972948;28;19968;-71
2023/12/19 12:49:02;;;;;;;;;;;22.60;99.90;;;;;;4971996;28;19922;-71
2023/12/19 12:51:30;;;;;;;;;;;22.60;99.90;;;;;;4974055;28;20013;-71
2023/12/19 12:54:02;;;;;;;;;;;22.60;99.90;;;;;;4973010;28;19914;-71
2023/12/19 12:56:33;;;;;;;;;;;22.50;99.90;;;;;;4970900;28;19956;-77
2023/12/19 12:59:06;;;;;;;;;;;22.60;99.90;;;;;;4971032;28;19915;-71
2023/12/19 13:01:34;;;;;;;;;;;22.60;99.90;;;;;;4961271;28;19918;-75
2023/12/19 13:04:02;;;;;;;;;;;22.60;99.90;;;;;;4975796;28;20391;-71
2023/12/19 13:06:29;;;;;;;;;;;22.60;99.90;;;;;;4980994;28;19910;-72
2023/12/19 13:08:56;;;;;;;;;;;22.60;99.90;;;;;;4971830;28;19918;-72
2023/12/19 13:11:22;;;;;;;;;;;22.60;99.90;;;;;;4972867;28;19918;-72
2023/12/19 13:13:50;;;;;;;;;;;22.60;99.90;;;;;;4958955;28;19964;-72
2023/12/19 13:16:16;;;;;;;;;;;22.60;99.90;;;;;;4972831;28;19910;-69
2023/12/19 13:18:47;;;;;;;;;;;22.60;99.90;;;;;;4973303;28;19910;-74
2023/12/19 13:21:14;;;;;;;;;;;22.60;99.90;;;;;;4973224;28;19975;-71
2023/12/19 13:23:41;;;;;;;;;;;22.60;99.90;;;;;;4972088;28;19982;-72
2023/12/19 13:26:08;;;;;;;;;;;22.70;99.90;;;;;;4978766;28;19910;-72
2023/12/19 13:28:34;;;;;;;;;;;22.70;99.90;;;;;;5074991;28;20281;-72
2023/12/19 13:31:03;;;;;;;;;;;22.70;99.90;;;;;;5075206;28;19912;-73
2023/12/19 13:33:30;;;;;;;;;;;22.60;99.90;;;;;;4992691;28;19954;-68
2023/12/19 13:35:58;;;;;;;;;;;22.70;99.90;;;;;;4972480;28;19985;-69
2023/12/19 13:38:24;;;;;;;;;;;22.70;99.90;;;;;;4972719;28;19921;-74
2023/12/19 13:40:51;;;;;;;;;;;22.70;99.90;;;;;;4972534;28;19925;-73
2023/12/19 13:43:17;;;;;;;;;;;22.70;99.90;;;;;;4972813;28;19914;-75
2023/12/19 13:45:44;;;;;;;;;;;22.60;99.90;;;;;;4971789;28;19910;-71
2023/12/19 13:48:11;;;;;;;;;;;22.60;99.90;;;;;;4973014;28;19936;-71
2023/12/19 13:50:38;;;;;;;;;;;22.60;99.90;;;;;;4972399;28;19996;-72
2023/12/19 13:53:05;;;;;;;;;;;22.50;99.90;;;;;;4971998;28;19957;-72
2023/12/19 13:55:31;;;;;;;;;;;22.60;99.90;;;;;;4972800;28;19933;-75
2023/12/19 13:57:58;;;;;;;;;;;22.60;99.90;;;;;;4972839;28;20317;-71
2023/12/19 14:00:24;;;;;;;;;;;22.50;99.90;;;;;;4972818;28;19910;-74
2023/12/19 14:02:51;;;;;;;;;;;22.50;99.90;;;;;;4972623;28;19924;-69
2023/12/19 14:05:18;;;;;;;;;;;22.50;99.90;;;;;;4972711;28;19964;-73
2023/12/19 14:07:45;;;;;;;;;;;22.50;99.90;;;;;;4972570;28;19910;-69
2023/12/19 14:10:12;;;;;;;;;;;22.50;99.90;;;;;;4972276;28;20022;-73
2023/12/19 14:12:39;;;;;;;;;;;22.50;99.90;;;;;;4971207;28;19918;-72
2023/12/19 14:15:13;;;;;;;;;;;22.50;99.90;;;;;;4972763;28;19993;-73
2023/12/19 14:17:41;;;;;;;;;;;22.50;99.90;;;;;;4972958;28;20013;-69
2023/12/19 14:20:08;;;;;;;;;;;22.50;99.90;;;;;;4972405;28;20329;-79
2023/12/19 14:22:35;;;;;;;;;;;22.50;99.90;;;;;;4971957;28;19929;-75